Terminal Aerodrome Forecast
Issued by NWS

Home | Current Version | Previous Version | Text Only | Print | Product List | Glossary On
Versions: 1 2 3 4 5 6 7 8 9 10 11 12 13 14 15 16 17 18 19
443
FTUS41 KAKQ 251140
TAFPHF
TAF
KPHF 251140Z 2512/2612 18004KT P6SM MIFG SCT250
     FM251300 18008KT P6SM SCT250
     FM251800 20014G22KT P6SM SCT040 BKN250
     FM252100 24015G25KT 4SM SHRA VCTS BKN040CB
     FM252300 29012G20KT P6SM BKN060
     FM260200 30008KT P6SM SKC=

USA.gov is the U.S. government's official web portal to all federal, state and local government web resources and services.